TimePST,TemperatureF,Dew PointF,Humidity,Sea Level PressureIn,VisibilityMPH,Wind Direction,Wind SpeedMPH,Gust SpeedMPH,PrecipitationIn,Events,Conditions,WindDirDegrees,DateUTC
12:20 AM,23.0,23.0,100,30.13,10.0,South,2.3,-,N/A,,Overcast,190,2013-01-06 08:20:00
12:37 AM,23.0,23.0,100,30.12,10.0,South,5.8,-,N/A,,Overcast,170,2013-01-06 08:37:00
12:58 AM,23.9,23.9,100,30.21,10.0,South,4.6,-,0.00,,Overcast,180,2013-01-06 08:58:00
1:58 AM,24.3,24.3,100,30.21,10.0,SW,4.6,-,N/A,,Overcast,230,2013-01-06 09:58:00
2:31 AM,24.8,24.8,100,30.12,10.0,South,3.5,-,N/A,,Overcast,190,2013-01-06 10:31:00
2:56 AM,24.8,24.8,100,30.12,10.0,SSE,1.2,-,N/A,,Overcast,160,2013-01-06 10:56:00
2:58 AM,24.6,24.6,100,30.21,10.0,SSE,2.3,-,0.00,,Overcast,160,2013-01-06 10:58:00
3:08 AM,24.8,24.8,100,30.12,10.0,South,4.6,-,N/A,,Overcast,170,2013-01-06 11:08:00
3:28 AM,24.8,24.8,100,30.12,1.8,SSW,1.2,-,N/A,Snow,Light Snow,210,2013-01-06 11:28:00
3:33 AM,24.8,24.8,100,30.12,1.2,Calm,Calm,-,N/A,Snow,Light Snow,0,2013-01-06 11:33:00
3:38 AM,24.8,24.8,100,30.11,1.5,Calm,Calm,-,N/A,Snow,Light Snow,0,2013-01-06 11:38:00
3:48 AM,24.8,24.8,100,30.11,1.8,South,2.3,-,N/A,Snow,Light Snow,180,2013-01-06 11:48:00
3:53 AM,24.8,24.8,100,30.11,2.0,South,2.3,-,N/A,Snow,Light Snow,180,2013-01-06 11:53:00
3:58 AM,24.8,24.8,100,30.20,1.8,South,2.3,-,0.02,Snow,Light Snow,180,2013-01-06 11:58:00
4:03 AM,24.8,24.8,100,30.11,1.5,South,2.3,-,N/A,Snow,Light Snow,190,2013-01-06 12:03:00
4:13 AM,24.8,24.8,100,30.10,1.8,South,3.5,-,N/A,Snow,Light Snow,180,2013-01-06 12:13:00
4:18 AM,24.8,24.8,100,30.10,2.5,South,3.5,-,N/A,Snow,Light Snow,170,2013-01-06 12:18:00
4:23 AM,24.8,24.8,100,30.10,4.0,South,3.5,-,N/A,Snow,Light Snow,190,2013-01-06 12:23:00
4:24 AM,24.8,24.8,100,30.10,4.0,South,3.5,-,N/A,Snow,Light Snow,180,2013-01-06 12:24:00
4:49 AM,24.8,24.8,100,30.11,2.5,SW,3.5,-,N/A,Snow,Light Snow,230,2013-01-06 12:49:00
4:58 AM,24.1,24.1,100,30.19,1.8,South,4.6,-,0.01,Snow,Light Snow,180,2013-01-06 12:58:00
5:03 AM,24.8,24.8,100,30.09,2.0,South,3.5,-,N/A,Snow,Light Snow,180,2013-01-06 13:03:00
5:08 AM,24.8,24.8,100,30.10,3.0,South,4.6,-,N/A,Snow,Light Snow,180,2013-01-06 13:08:00
5:45 AM,24.8,24.8,100,30.09,5.0,SSE,3.5,-,N/A,,Overcast,150,2013-01-06 13:45:00
5:49 AM,24.8,24.8,100,30.09,6.0,South,3.5,-,N/A,,Overcast,170,2013-01-06 13:49:00
5:54 AM,24.8,24.8,100,30.08,7.0,SSE,3.5,-,N/A,,Overcast,160,2013-01-06 13:54:00
5:58 AM,24.1,24.1,100,30.17,8.0,ESE,1.2,-,0.00,,Overcast,110,2013-01-06 13:58:00
6:01 AM,24.8,24.8,100,30.09,8.0,ENE,1.2,-,N/A,,Overcast,70,2013-01-06 14:01:00
6:06 AM,24.8,24.8,100,30.09,9.0,South,2.3,-,N/A,,Overcast,190,2013-01-06 14:06:00
6:56 AM,24.8,24.8,100,30.08,10.0,South,3.5,-,N/A,,Overcast,170,2013-01-06 14:56:00
6:58 AM,24.6,24.6,100,30.18,10.0,Variable,1.2,-,N/A,,Overcast,0,2013-01-06 14:58:00
7:54 AM,24.8,24.8,100,30.09,10.0,South,5.8,-,N/A,,Overcast,190,2013-01-06 15:54:00
7:58 AM,25.3,25.3,100,30.20,10.0,South,5.8,-,0.00,,Overcast,190,2013-01-06 15:58:00
8:03 AM,24.8,24.8,100,30.10,10.0,SSW,2.3,-,N/A,,Overcast,210,2013-01-06 16:03:00
8:26 AM,24.8,24.8,100,30.10,10.0,SSW,4.6,-,N/A,,Overcast,200,2013-01-06 16:26:00
8:53 AM,24.8,24.8,100,30.11,10.0,South,4.6,-,N/A,,Overcast,190,2013-01-06 16:53:00
8:58 AM,25.7,25.7,100,30.22,10.0,South,5.8,-,0.00,,Overcast,190,2013-01-06 16:58:00
9:03 AM,26.6,26.6,100,30.11,10.0,South,4.6,-,N/A,,Overcast,190,2013-01-06 17:03:00
9:13 AM,26.6,26.6,100,30.12,10.0,South,8.1,-,N/A,,Overcast,190,2013-01-06 17:13:00
9:43 AM,26.6,26.6,100,30.12,10.0,SSW,5.8,-,N/A,,Overcast,200,2013-01-06 17:43:00
9:58 AM,26.1,26.1,100,30.23,10.0,SSW,6.9,-,N/A,,Overcast,210,2013-01-06 17:58:00
10:15 AM,26.6,26.6,100,30.12,10.0,SSW,10.4,-,N/A,,Overcast,210,2013-01-06 18:15:00
10:26 AM,26.6,26.6,100,30.12,10.0,SW,8.1,-,N/A,,Overcast,220,2013-01-06 18:26:00
10:58 AM,26.2,26.2,100,30.21,10.0,SSW,8.1,-,0.00,,Overcast,200,2013-01-06 18:58:00
11:33 AM,26.6,26.6,100,30.10,10.0,SSW,8.1,-,N/A,,Overcast,210,2013-01-06 19:33:00
11:48 AM,26.6,26.6,100,30.10,10.0,SW,6.9,-,N/A,,Overcast,220,2013-01-06 19:48:00
11:58 AM,26.2,26.2,100,30.19,10.0,SSW,8.1,-,N/A,,Overcast,200,2013-01-06 19:58:00
12:08 PM,26.6,26.6,100,30.09,10.0,South,5.8,-,N/A,,Overcast,190,2013-01-06 20:08:00
12:43 PM,26.6,26.6,100,30.07,10.0,SSW,8.1,-,N/A,,Overcast,210,2013-01-06 20:43:00
12:58 PM,26.2,26.2,100,30.17,10.0,SW,6.9,-,N/A,,Overcast,230,2013-01-06 20:58:00
1:43 PM,26.6,26.6,100,30.06,9.0,South,9.2,-,N/A,,Overcast,190,2013-01-06 21:43:00
1:58 PM,26.1,26.1,100,30.15,10.0,South,5.8,-,N/A,,Overcast,190,2013-01-06 21:58:00
2:58 PM,26.2,26.2,100,30.15,9.0,South,9.2,-,N/A,,Overcast,190,2013-01-06 22:58:00
3:15 PM,26.6,26.6,100,30.07,10.0,SSW,8.1,-,N/A,,Overcast,210,2013-01-06 23:15:00
3:26 PM,24.8,24.8,100,30.06,8.0,SSW,5.8,-,N/A,,Overcast,210,2013-01-06 23:26:00
3:31 PM,24.8,24.8,100,30.07,8.0,SW,5.8,-,N/A,,Overcast,220,2013-01-06 23:31:00
3:58 PM,25.9,25.9,100,30.17,7.0,SW,3.5,-,0.00,,Overcast,220,2013-01-06 23:58:00
4:13 PM,26.6,26.6,100,30.07,7.0,SSW,6.9,-,N/A,,Overcast,200,2013-01-07 00:13:00
4:27 PM,26.6,26.6,100,30.07,7.0,South,6.9,-,N/A,,Overcast,190,2013-01-07 00:27:00
4:58 PM,25.7,25.7,100,30.15,4.0,South,6.9,-,0.00,,Overcast,170,2013-01-07 00:58:00
5:13 PM,24.8,24.8,100,30.05,3.0,South,8.1,-,N/A,,Overcast,190,2013-01-07 01:13:00
5:18 PM,24.8,24.8,100,30.05,1.8,South,6.9,-,N/A,,Overcast,190,2013-01-07 01:18:00
5:20 PM,24.8,24.8,100,30.05,1.2,South,5.8,-,N/A,,Overcast,180,2013-01-07 01:20:00
5:25 PM,24.8,24.8,100,30.05,1.0,South,6.9,-,N/A,,Mist,180,2013-01-07 01:25:00
5:26 PM,24.8,24.8,100,30.05,1.0,South,6.9,-,N/A,Rain,Light Freezing Rain,180,2013-01-07 01:26:00
5:31 PM,26.6,26.6,100,30.06,0.8,South,5.8,-,N/A,Rain,Light Freezing Rain,180,2013-01-07 01:31:00
5:36 PM,26.6,26.6,100,30.06,0.8,South,6.9,-,N/A,Rain,Light Freezing Rain,180,2013-01-07 01:36:00
5:41 PM,26.6,26.6,100,30.06,0.8,South,5.8,-,N/A,Rain,Light Freezing Rain,180,2013-01-07 01:41:00
5:46 PM,26.6,26.6,100,30.06,0.8,South,8.1,-,N/A,Rain,Light Freezing Rain,180,2013-01-07 01:46:00
5:51 PM,26.6,26.6,100,30.05,0.8,South,4.6,-,N/A,Rain,Light Freezing Rain,180,2013-01-07 01:51:00
5:58 PM,26.1,26.1,100,30.14,0.8,South,5.8,-,0.00,Rain,Light Freezing Rain,180,2013-01-07 01:58:00
6:03 PM,26.6,26.6,100,30.05,0.8,South,6.9,-,N/A,Rain,Light Freezing Rain,180,2013-01-07 02:03:00
6:08 PM,26.6,26.6,100,30.06,0.8,South,5.8,-,N/A,Rain,Light Freezing Rain,180,2013-01-07 02:08:00
6:28 PM,26.6,26.6,100,30.05,0.8,South,4.6,-,N/A,Rain,Light Freezing Rain,190,2013-01-07 02:28:00
6:33 PM,26.6,26.6,100,30.05,1.0,South,5.8,-,N/A,,Mist,190,2013-01-07 02:33:00
6:55 PM,26.8,26.8,100,30.14,1.5,South,4.6,-,N/A,,Overcast,190,2013-01-07 02:55:00
7:14 PM,26.6,26.6,100,30.14,2.0,Calm,Calm,-,N/A,,Overcast,0,2013-01-07 03:14:00
7:26 PM,26.6,26.6,100,30.14,4.0,ESE,2.3,-,N/A,,Overcast,110,2013-01-07 03:26:00
7:37 PM,26.6,26.6,100,30.05,3.0,SSE,2.3,-,N/A,,Overcast,150,2013-01-07 03:37:00
7:45 PM,26.6,26.6,100,30.05,4.0,SSE,2.3,-,N/A,,Overcast,150,2013-01-07 03:45:00
7:58 PM,27.1,27.1,100,30.14,5.0,SSE,3.5,-,0.00,,Overcast,150,2013-01-07 03:58:00
8:02 PM,26.6,26.6,100,30.05,5.0,South,3.5,-,N/A,,Overcast,170,2013-01-07 04:02:00
8:17 PM,26.6,26.6,100,30.05,7.0,South,3.5,-,N/A,,Overcast,190,2013-01-07 04:17:00
8:22 PM,26.6,26.6,100,30.05,8.0,South,3.5,-,N/A,,Overcast,180,2013-01-07 04:22:00
8:27 PM,26.6,26.6,100,30.05,8.0,South,3.5,-,N/A,,Overcast,190,2013-01-07 04:27:00
8:47 PM,26.6,26.6,100,30.06,10.0,South,5.8,-,N/A,,Overcast,180,2013-01-07 04:47:00
8:52 PM,28.4,28.4,100,30.06,10.0,South,6.9,-,N/A,,Overcast,190,2013-01-07 04:52:00
8:58 PM,27.7,27.7,100,30.14,10.0,South,5.8,-,0.00,,Overcast,180,2013-01-07 04:58:00
9:03 PM,28.4,28.4,100,30.05,10.0,South,5.8,-,N/A,,Overcast,180,2013-01-07 05:03:00
9:10 PM,28.4,28.4,100,30.05,10.0,South,4.6,-,N/A,,Overcast,180,2013-01-07 05:10:00
9:25 PM,28.4,28.4,100,30.04,10.0,South,8.1,-,N/A,,Overcast,190,2013-01-07 05:25:00
9:45 PM,28.4,28.4,100,30.05,3.0,SSW,6.9,-,N/A,Snow,Light Snow,200,2013-01-07 05:45:00
9:58 PM,28.0,28.0,100,30.14,3.0,SSW,6.9,-,0.00,Snow,Light Snow,200,2013-01-07 05:58:00
10:03 PM,28.4,28.4,100,30.05,2.5,SSW,5.8,-,N/A,Snow,Light Snow,200,2013-01-07 06:03:00
10:23 PM,28.4,28.4,100,30.05,2.5,South,8.1,-,N/A,Snow,Light Snow,190,2013-01-07 06:23:00
10:53 PM,28.4,28.4,100,30.03,3.0,South,9.2,-,N/A,Snow,Light Snow,170,2013-01-07 06:53:00
10:58 PM,28.2,28.2,100,30.11,4.0,South,10.4,-,0.01,Snow,Light Snow,170,2013-01-07 06:58:00
11:13 PM,28.4,28.4,100,30.02,4.0,South,8.1,-,N/A,Snow,Light Snow,170,2013-01-07 07:13:00
11:58 PM,28.6,28.6,100,30.10,4.0,South,9.2,-,0.01,Snow,Light Snow,170,2013-01-07 07:58:00